Nearby METAR Reports

CWGD - Goderich (autob), Ontario, Canada
Distance from station: SW 47km
Updated: 10/24/2018 12:00am

 Wind from NNW
Wind: NNW 30 km/h, Gust: 52 km/h
Temperature: 6°C
Wind Chill: 2°C
Dew Point: -1°C
Humidity: 61%
2018/10/24 04:00 CWGD 240400Z AUTO 34016G28KT 06/M01 RMK AO1 5PAST HR 1009 PK WND 34028/0400 SLP231 P0002 T00631010 50007
CWLS - Mount Forest(Mar, Ontario, Canada
Distance from station: ESE 53km
Updated: 10/24/2018 12:00am

 Wind from NW
Wind: NW 11 km/h
Temperature: 2°C
Wind Chill: -1°C
Dew Point: 1°C
Humidity: 93%
2018/10/24 04:00 CWLS 240400Z AUTO 31006KT 02/01 RMK AO1 1010 SLP222 T00170008 50009
 
CYVV - Wiarton Air, Ontario, Canada
Distance from station: NNE 75km
Updated: 10/24/2018 12:38am
Mostly cloudy
Mostly cloudy
 Wind from NW
Wind: NW 15 km/h
Temperature: 3°C
Wind Chill: -1°C
Dew Point: 1°C
Humidity: 87%
Barometer: 1022.7 hPa
Clouds: Mostly cloudy
Visibility: 24 km
Cloud details: Partly cloudy 610 m
Mostly cloudy 1372 m
2018/10/24 04:38 CYVV 240438Z 32008KT 270V360 15SM SCT020 BKN045 03/01 A3020 RMK SC3SC4 SLP235
CZEL - Elora Rcs, Ontario, Canada
Distance from station: ESE 93km
Updated: 10/24/2018 12:00am

 Wind from NW
Wind: NW 20 km/h
Temperature: 3°C
Wind Chill: -2°C
Dew Point: 1°C
Humidity: 87%
2018/10/24 04:00 CZEL 240400Z AUTO 32011KT 03/01 RMK AO1 SLP218 T00260005 51010
 
CWCO - Collingwood (aut, Ontario, Canada
Distance from station: ENE 104km
Updated: 10/24/2018 12:00am

 Wind from NNW
Wind: NNW 41 km/h, Gust: 50 km/h
Temperature: 6°C
Wind Chill: 1°C
Dew Point: 2°C
Humidity: 76%
2018/10/24 04:00 CWCO 240400Z AUTO 34022G27KT 06/02 RMK AO1 1012 PK WND 34029/0300 SLP208 T00580023 50004
CYKF - Waterloo Well, Ontario, Canada
Distance from station: SE 107km
Updated: 10/24/2018 12:00am
Overcast
Overcast
 Wind from WNW
Wind: WNW 15 km/h
Temperature: 3°C
Wind Chill: -1°C
Dew Point: 1°C
Humidity: 87%
Barometer: 1021 hPa
Clouds: Overcast
Visibility: 14 km
Cloud details: Mostly cloudy 1402 m
Overcast 1676 m
2018/10/24 04:00 CYKF 240400Z AUTO 30008KT 9SM BKN046 OVC055 03/01 A3015 RMK SLP221
 
KP58 - Port Hope, Michigan, USA
Distance from station: W 114km
Updated: 10/24/2018 12:51am

 Wind from NW
Wind: NW 28 km/h, Gust: 44 km/h
Temperature: 7°C
Wind Chill: 3°C
Dew Point: 0°C
Humidity: 61%
Barometer: 1024.4 hPa
2018/10/24 04:51 KP58 240451Z AUTO 31015G24KT 07/00 A3025 RMK AO1 SLP249 T00670000 4
CYBN - Borden, Ontario, Canada
Distance from station: E 118km
Updated: 10/24/2018 12:00am
Light rain, Overcast
Light rain, Overcast
 Wind from WNW
Wind: WNW 7 km/h
Temperature: 3°C
Wind Chill: 1°C
Dew Point: 2°C
Humidity: 93%
Barometer: 1020.7 hPa
Summary: Light rain
Clouds: Overcast
Visibility: 13 km
Cloud details: Overcast 305 m
2018/10/24 04:00 CYBN 240400Z AUTO 30004KT 270V010 8SM -RA VV010 03/02 A3014 RMK PCPN 2.0MM PAST HR SLP213
 
CYXU - London Airport, Ontario, Canada
Distance from station: S 123km
Updated: 10/24/2018 12:00am
Overcast
Overcast
 Wind from WNW
Wind: WNW 15 km/h
Temperature: 3°C
Wind Chill: -1°C
Dew Point: 1°C
Humidity: 87%
Barometer: 1022.7 hPa
Clouds: Overcast
Visibility: 24 km
Cloud details: Mostly cloudy 945 m
Overcast 1676 m
2018/10/24 04:00 CYXU 240400Z 30008KT 15SM BKN031 OVC055 03/01 A3020 RMK SC5SC3 SLP236
CXET - Egbert Cs, Ontario, Canada
Distance from station: E 128km
Updated: 10/24/2018 12:00am

 Wind from NW
Wind: NW 11 km/h
Temperature: 2°C
Wind Chill: -1°C
Dew Point: 1°C
Humidity: 93%
2018/10/24 04:00 CXET 240400Z AUTO 32006KT 02/01 RMK AO1 2011 SLP206 T00150012 50029
 
CWMZ - Western Isl (map, Ontario, Canada
Distance from station: NE 129km
Updated: 10/24/2018 12:00am

 Wind from N
Wind: N 48 km/h, Gust: 57 km/h
Temperature: 4°C
Wind Chill: -3°C
Dew Point: 0°C
Humidity: 75%
2018/10/24 04:00 CWMZ 240400Z AUTO 36026G31KT 04/M00 RMK AO1 PK WND 35031/0358 SLP211 T00441002 51013
KBAX - Bad Axe, Michigan, USA
Distance from station: WSW 133km
Updated: 10/24/2018 12:36am
Overcast
Overcast
 Wind from NW
Wind: NW 13 km/h, Gust: 26 km/h
Temperature: 5°C
Wind Chill: 2°C
Dew Point: 0°C
Humidity: 70%
Barometer: 1025.4 hPa
Clouds: Overcast
Visibility: 16 km
Cloud details: Overcast 1097 m
2018/10/24 04:36 KBAX 240436Z AUTO 32007G14KT 10SM OVC036 05/00 A3028 RMK AO2 T00501005
 
CWWX - Cove Island (map, Ontario, Canada
Distance from station: NNW 137km
Updated: 10/24/2018 12:00am

 Wind from NNE
Wind: NNE 35 km/h, Gust: 46 km/h
Temperature: 5°C
Wind Chill: -1°C
Dew Point: 1°C
Humidity: 76%
2018/10/24 04:00 CWWX 240400Z AUTO 03019G25KT 05/01 RMK AO1 PK WND 01025/0306 SLP235 T00490007 51016
CYZR - Sarnia Airport, Ontario, Canada
Distance from station: SSW 144km
Updated: 10/24/2018 12:00am
Mostly cloudy
Mostly cloudy
 Wind from NNW
Wind: NNW 35 km/h, Gust: 44 km/h
Temperature: 6°C
Wind Chill: 1°C
Dew Point: -1°C
Humidity: 61%
Barometer: 1024 hPa
Clouds: Mostly cloudy
Visibility: 14 km
Cloud details: Mostly cloudy 1402 m
2018/10/24 04:00 CYZR 240400Z AUTO 34019G24KT 9SM BKN046 06/M01 A3024 RMK SLP247
 
CXHM - Hamilton Rbg Cs, Ontario, Canada
Distance from station: SE 150km
Updated: 10/24/2018 12:00am

 Wind from W
Wind: W 7 km/h
Temperature: 5°C
Wind Chill: 3°C
Dew Point: 2°C
Humidity: 81%
2018/10/24 04:00 CXHM 240400Z AUTO 28004KT 05/02 RMK AO1 SLP211 T00530017 51008
CYYZ - Toronto/Pearson, Ontario, Canada
Distance from station: ESE 150km
Updated: 10/24/2018 12:00am
Mostly cloudy
Mostly cloudy
 Wind from NNW
Wind: NNW 24 km/h, Gust: 43 km/h
Temperature: 5°C
Wind Chill: 1°C
Dew Point: 0°C
Humidity: 70%
Barometer: 1020.7 hPa
Clouds: Mostly cloudy
Visibility: 24 km
Cloud details: Few Clouds 853 m
Partly cloudy 1829 m
Mostly cloudy 2134 m
2018/10/24 04:00 CYYZ 240400Z 34013G23KT 15SM FEW028 SCT060 BKN070 05/M00 A3014 RMK SF1SC3AC4 SF TR SLP212
 
CXBI - Barrie-Oro, Ontario, Canada
Distance from station: ENE 151km
Updated: 10/24/2018 12:00am

 Wind from NNW
Wind: NNW 17 km/h, Gust: 28 km/h
Temperature: 2°C
Wind Chill: -2°C
Dew Point: 0°C
Humidity: 87%
2018/10/24 04:00 CXBI 240400Z AUTO 34009G15KT 02/M00 RMK AO1 1014 SLP209 T00221001 50005
CXDI - Delhi Cs (aut), Ontario, Canada
Distance from station: SSE 154km
Updated: 10/24/2018 12:00am

 Wind from WNW
Wind: WNW 9 km/h
Temperature: 5°C
Wind Chill: 3°C
Dew Point: 1°C
Humidity: 76%
2018/10/24 04:00 CXDI 240400Z AUTO 30005KT 05/01 RMK AO1 SLP219 T00450014 51005
 
CWWB - Burlington Piers, Ontario, Canada
Distance from station: SE 157km
Updated: 10/24/2018 12:00am

 Wind from W
Wind: W 9 km/h
Temperature: 6°C
Wind Chill: 4°C
Dew Point: 1°C
Humidity: 71%
2018/10/24 04:00 CWWB 240400Z AUTO 28005KT 06/01 RMK AO1 SLP213 T00640005 51010
CYHM - Hamilton Airport, Ontario, Canada
Distance from station: SE 157km
Updated: 10/24/2018 12:00am
Mostly cloudy
Mostly cloudy
 Wind from W
Wind: W 13 km/h
Temperature: 3°C
Wind Chill: -1°C
Dew Point: 1°C
Humidity: 87%
Barometer: 1021.3 hPa
Clouds: Mostly cloudy
Visibility: 24 km
Cloud details: Mostly cloudy 1524 m
Mostly cloudy 2134 m
2018/10/24 04:00 CYHM 240400Z 28007KT 15SM BKN050 BKN070 03/01 A3016 RMK SC5AC2 SLP220